Inicio METAR Ruta Wind Satelite

Informe Meteorológico

Fecha: 2021/09/21 15:23:49 Local
2021.09.21 20:23 UTC


Operación:
SKPV 212000Z 02014KT 9999 FEW017 BKN200 30/25 Q1011 RMK A2987 =